sensor_id;sensor_type;location;lat;lon;timestamp;temperature;humidity
33093;DHT22;19456;46.104;12.908;2023-05-07T00:01:20;15.30;99.90
33093;DHT22;19456;46.104;12.908;2023-05-07T00:03:46;15.10;99.90
33093;DHT22;19456;46.104;12.908;2023-05-07T00:06:12;15.10;99.90
33093;DHT22;19456;46.104;12.908;2023-05-07T00:08:38;15.10;99.90
33093;DHT22;19456;46.104;12.908;2023-05-07T00:11:03;15.20;99.90
33093;DHT22;19456;46.104;12.908;2023-05-07T00:13:29;15.30;99.90
33093;DHT22;19456;46.104;12.908;2023-05-07T00:16:03;15.40;99.90
33093;DHT22;19456;46.104;12.908;2023-05-07T00:18:28;15.50;99.90
33093;DHT22;19456;46.104;12.908;2023-05-07T00:20:54;15.50;99.90
33093;DHT22;19456;46.104;12.908;2023-05-07T00:23:19;15.50;99.90
33093;DHT22;19456;46.104;12.908;2023-05-07T00:25:45;15.60;99.90
33093;DHT22;19456;46.104;12.908;2023-05-07T00:28:10;15.60;99.90
33093;DHT22;19456;46.104;12.908;2023-05-07T00:30:36;15.60;99.90
33093;DHT22;19456;46.104;12.908;2023-05-07T00:33:01;15.60;99.90
33093;DHT22;19456;46.104;12.908;2023-05-07T00:35:28;15.50;99.90
33093;DHT22;19456;46.104;12.908;2023-05-07T00:37:53;15.50;99.90
33093;DHT22;19456;46.104;12.908;2023-05-07T00:40:19;15.60;99.90
33093;DHT22;19456;46.104;12.908;2023-05-07T00:42:45;15.60;99.90
33093;DHT22;19456;46.104;12.908;2023-05-07T00:45:13;15.50;99.90
33093;DHT22;19456;46.104;12.908;2023-05-07T00:47:38;15.40;99.90
33093;DHT22;19456;46.104;12.908;2023-05-07T00:50:05;15.30;99.90
33093;DHT22;19456;46.104;12.908;2023-05-07T00:52:30;15.20;99.90
33093;DHT22;19456;46.104;12.908;2023-05-07T00:54:56;15.10;99.90
33093;DHT22;19456;46.104;12.908;2023-05-07T00:57:22;15.00;99.90
33093;DHT22;19456;46.104;12.908;2023-05-07T00:59:50;15.10;99.90
33093;DHT22;19456;46.104;12.908;2023-05-07T01:02:16;15.20;99.90
33093;DHT22;19456;46.104;12.908;2023-05-07T01:04:41;15.30;99.90
33093;DHT22;19456;46.104;12.908;2023-05-07T01:07:07;15.40;99.90
33093;DHT22;19456;46.104;12.908;2023-05-07T01:09:33;15.60;99.90
33093;DHT22;19456;46.104;12.908;2023-05-07T01:12:00;15.70;99.90
33093;DHT22;19456;46.104;12.908;2023-05-07T01:14:26;15.80;99.90
33093;DHT22;19456;46.104;12.908;2023-05-07T01:16:52;15.90;99.90
33093;DHT22;19456;46.104;12.908;2023-05-07T01:19:18;16.00;99.90
33093;DHT22;19456;46.104;12.908;2023-05-07T01:21:48;16.00;99.90
33093;DHT22;19456;46.104;12.908;2023-05-07T01:24:14;15.80;99.90
33093;DHT22;19456;46.104;12.908;2023-05-07T01:26:39;15.30;99.90
33093;DHT22;19456;46.104;12.908;2023-05-07T01:29:05;15.10;99.90
33093;DHT22;19456;46.104;12.908;2023-05-07T01:31:34;15.10;99.90
33093;DHT22;19456;46.104;12.908;2023-05-07T01:34:00;15.00;99.90
33093;DHT22;19456;46.104;12.908;2023-05-07T01:36:26;14.80;99.90
33093;DHT22;19456;46.104;12.908;2023-05-07T01:38:52;14.80;99.90
33093;DHT22;19456;46.104;12.908;2023-05-07T01:41:18;14.80;99.90
33093;DHT22;19456;46.104;12.908;2023-05-07T01:43:45;14.80;99.90
33093;DHT22;19456;46.104;12.908;2023-05-07T01:46:11;14.80;99.90
33093;DHT22;19456;46.104;12.908;2023-05-07T01:48:37;14.80;99.90
33093;DHT22;19456;46.104;12.908;2023-05-07T01:51:03;14.80;99.90
33093;DHT22;19456;46.104;12.908;2023-05-07T01:53:34;14.90;99.90
33093;DHT22;19456;46.104;12.908;2023-05-07T01:56:00;15.00;99.90
33093;DHT22;19456;46.104;12.908;2023-05-07T01:58:26;15.00;99.90
33093;DHT22;19456;46.104;12.908;2023-05-07T02:00:51;15.00;99.90
33093;DHT22;19456;46.104;12.908;2023-05-07T02:03:17;15.10;99.90
33093;DHT22;19456;46.104;12.908;2023-05-07T02:05:42;15.10;99.90
33093;DHT22;19456;46.104;12.908;2023-05-07T02:08:08;15.20;99.90
33093;DHT22;19456;46.104;12.908;2023-05-07T02:10:33;15.30;99.90
33093;DHT22;19456;46.104;12.908;2023-05-07T02:12:59;15.40;99.90
33093;DHT22;19456;46.104;12.908;2023-05-07T02:15:27;15.40;99.90
33093;DHT22;19456;46.104;12.908;2023-05-07T02:17:59;15.50;99.90
33093;DHT22;19456;46.104;12.908;2023-05-07T02:20:25;15.40;99.90
33093;DHT22;19456;46.104;12.908;2023-05-07T02:22:50;15.10;99.90
33093;DHT22;19456;46.104;12.908;2023-05-07T02:25:16;15.00;99.90
33093;DHT22;19456;46.104;12.908;2023-05-07T02:27:41;15.10;99.90
33093;DHT22;19456;46.104;12.908;2023-05-07T02:30:07;15.10;99.90
33093;DHT22;19456;46.104;12.908;2023-05-07T02:32:33;15.20;99.90
33093;DHT22;19456;46.104;12.908;2023-05-07T02:34:58;15.30;99.90
33093;DHT22;19456;46.104;12.908;2023-05-07T02:37:24;15.30;99.90
33093;DHT22;19456;46.104;12.908;2023-05-07T02:39:50;15.30;99.90
33093;DHT22;19456;46.104;12.908;2023-05-07T02:42:15;15.30;99.90
33093;DHT22;19456;46.104;12.908;2023-05-07T02:44:41;15.20;99.90
33093;DHT22;19456;46.104;12.908;2023-05-07T02:47:06;14.80;99.90
33093;DHT22;19456;46.104;12.908;2023-05-07T02:49:33;14.70;99.90
33093;DHT22;19456;46.104;12.908;2023-05-07T02:51:59;14.60;99.90
33093;DHT22;19456;46.104;12.908;2023-05-07T02:54:25;14.50;99.90
33093;DHT22;19456;46.104;12.908;2023-05-07T02:56:50;14.40;99.90
33093;DHT22;19456;46.104;12.908;2023-05-07T02:59:16;14.10;99.90
33093;DHT22;19456;46.104;12.908;2023-05-07T03:01:41;14.10;99.90
33093;DHT22;19456;46.104;12.908;2023-05-07T03:04:09;14.10;99.90
33093;DHT22;19456;46.104;12.908;2023-05-07T03:06:35;14.20;99.90
33093;DHT22;19456;46.104;12.908;2023-05-07T03:09:00;14.20;99.90
33093;DHT22;19456;46.104;12.908;2023-05-07T03:11:26;14.30;99.90
33093;DHT22;19456;46.104;12.908;2023-05-07T03:13:51;14.30;99.90
33093;DHT22;19456;46.104;12.908;2023-05-07T03:16:17;14.20;99.90
33093;DHT22;19456;46.104;12.908;2023-05-07T03:18:42;14.20;99.90
33093;DHT22;19456;46.104;12.908;2023-05-07T03:21:08;14.20;99.90
33093;DHT22;19456;46.104;12.908;2023-05-07T03:23:34;14.20;99.90
33093;DHT22;19456;46.104;12.908;2023-05-07T03:25:59;14.20;99.90
33093;DHT22;19456;46.104;12.908;2023-05-07T03:28:25;14.20;99.90
33093;DHT22;19456;46.104;12.908;2023-05-07T03:30:50;14.30;99.90
33093;DHT22;19456;46.104;12.908;2023-05-07T03:33:16;14.40;99.90
33093;DHT22;19456;46.104;12.908;2023-05-07T03:35:41;14.50;99.90
33093;DHT22;19456;46.104;12.908;2023-05-07T03:38:07;14.60;99.90
33093;DHT22;19456;46.104;12.908;2023-05-07T03:40:32;14.70;99.90
33093;DHT22;19456;46.104;12.908;2023-05-07T03:42:59;14.70;99.90
33093;DHT22;19456;46.104;12.908;2023-05-07T03:45:25;14.70;99.90
33093;DHT22;19456;46.104;12.908;2023-05-07T03:47:51;14.70;99.90
33093;DHT22;19456;46.104;12.908;2023-05-07T03:50:16;14.80;99.90
33093;DHT22;19456;46.104;12.908;2023-05-07T03:52:42;14.90;99.90
33093;DHT22;19456;46.104;12.908;2023-05-07T03:55:08;15.00;99.90
33093;DHT22;19456;46.104;12.908;2023-05-07T03:57:33;15.00;99.90
33093;DHT22;19456;46.104;12.908;2023-05-07T03:59:59;15.00;99.90
33093;DHT22;19456;46.104;12.908;2023-05-07T04:02:24;15.10;99.90
33093;DHT22;19456;46.104;12.908;2023-05-07T04:04:50;15.00;99.90
33093;DHT22;19456;46.104;12.908;2023-05-07T04:07:16;14.90;99.90
33093;DHT22;19456;46.104;12.908;2023-05-07T04:09:41;14.90;99.90
33093;DHT22;19456;46.104;12.908;2023-05-07T04:12:07;14.80;99.90
33093;DHT22;19456;46.104;12.908;2023-05-07T04:14:32;14.80;99.90
33093;DHT22;19456;46.104;12.908;2023-05-07T04:16:58;14.80;99.90
33093;DHT22;19456;46.104;12.908;2023-05-07T04:19:24;14.80;99.90
33093;DHT22;19456;46.104;12.908;2023-05-07T04:21:50;14.80;99.90
33093;DHT22;19456;46.104;12.908;2023-05-07T04:24:16;14.80;99.90
33093;DHT22;19456;46.104;12.908;2023-05-07T04:26:41;14.80;99.90
33093;DHT22;19456;46.104;12.908;2023-05-07T04:29:07;14.90;99.90
33093;DHT22;19456;46.104;12.908;2023-05-07T04:31:32;14.90;99.90
33093;DHT22;19456;46.104;12.908;2023-05-07T04:33:58;15.00;99.90
33093;DHT22;19456;46.104;12.908;2023-05-07T04:36:24;14.90;99.90
33093;DHT22;19456;46.104;12.908;2023-05-07T04:38:53;14.90;99.90
33093;DHT22;19456;46.104;12.908;2023-05-07T04:41:19;15.00;99.90
33093;DHT22;19456;46.104;12.908;2023-05-07T04:43:44;15.00;99.90
33093;DHT22;19456;46.104;12.908;2023-05-07T04:46:10;15.20;99.90
33093;DHT22;19456;46.104;12.908;2023-05-07T04:48:36;15.30;99.90
33093;DHT22;19456;46.104;12.908;2023-05-07T04:51:01;15.30;99.90
33093;DHT22;19456;46.104;12.908;2023-05-07T04:53:27;15.50;99.90
33093;DHT22;19456;46.104;12.908;2023-05-07T04:55:56;15.60;99.90
33093;DHT22;19456;46.104;12.908;2023-05-07T04:58:22;15.80;99.90
33093;DHT22;19456;46.104;12.908;2023-05-07T05:00:48;16.00;99.90
33093;DHT22;19456;46.104;12.908;2023-05-07T05:03:13;16.10;99.90
33093;DHT22;19456;46.104;12.908;2023-05-07T05:05:39;16.20;99.90
33093;DHT22;19456;46.104;12.908;2023-05-07T05:08:04;16.30;99.90
33093;DHT22;19456;46.104;12.908;2023-05-07T05:10:30;16.20;99.90
33093;DHT22;19456;46.104;12.908;2023-05-07T05:12:55;15.90;99.90
33093;DHT22;19456;46.104;12.908;2023-05-07T05:15:21;15.90;99.90
33093;DHT22;19456;46.104;12.908;2023-05-07T05:17:46;15.80;99.90
33093;DHT22;19456;46.104;12.908;2023-05-07T05:20:12;15.80;99.90
33093;DHT22;19456;46.104;12.908;2023-05-07T05:22:38;15.80;99.90
33093;DHT22;19456;46.104;12.908;2023-05-07T05:25:04;15.80;99.90
33093;DHT22;19456;46.104;12.908;2023-05-07T05:27:29;15.70;99.90
33093;DHT22;19456;46.104;12.908;2023-05-07T05:29:55;15.70;99.90
33093;DHT22;19456;46.104;12.908;2023-05-07T05:32:21;15.70;99.90
33093;DHT22;19456;46.104;12.908;2023-05-07T05:34:47;15.80;99.90
33093;DHT22;19456;46.104;12.908;2023-05-07T05:37:12;15.80;99.90
33093;DHT22;19456;46.104;12.908;2023-05-07T05:39:38;15.80;99.90
33093;DHT22;19456;46.104;12.908;2023-05-07T05:42:03;15.80;99.90
33093;DHT22;19456;46.104;12.908;2023-05-07T05:44:29;15.90;99.90
33093;DHT22;19456;46.104;12.908;2023-05-07T05:46:54;15.90;99.90
33093;DHT22;19456;46.104;12.908;2023-05-07T05:49:22;16.00;99.90
33093;DHT22;19456;46.104;12.908;2023-05-07T05:51:48;16.10;99.90
33093;DHT22;19456;46.104;12.908;2023-05-07T05:54:14;16.20;99.90
33093;DHT22;19456;46.104;12.908;2023-05-07T05:56:40;16.30;99.90
33093;DHT22;19456;46.104;12.908;2023-05-07T05:59:05;16.50;99.90
33093;DHT22;19456;46.104;12.908;2023-05-07T06:01:31;16.70;99.90
33093;DHT22;19456;46.104;12.908;2023-05-07T06:03:57;16.90;99.90
33093;DHT22;19456;46.104;12.908;2023-05-07T06:06:22;17.10;99.90
33093;DHT22;19456;46.104;12.908;2023-05-07T06:08:48;17.20;99.90
33093;DHT22;19456;46.104;12.908;2023-05-07T06:11:14;17.30;99.90
33093;DHT22;19456;46.104;12.908;2023-05-07T06:13:39;17.50;99.90
33093;DHT22;19456;46.104;12.908;2023-05-07T06:16:05;17.60;99.90
33093;DHT22;19456;46.104;12.908;2023-05-07T06:18:31;17.70;99.90
33093;DHT22;19456;46.104;12.908;2023-05-07T06:20:56;17.90;99.90
33093;DHT22;19456;46.104;12.908;2023-05-07T06:23:22;17.90;99.90
33093;DHT22;19456;46.104;12.908;2023-05-07T06:25:48;18.10;99.90
33093;DHT22;19456;46.104;12.908;2023-05-07T06:28:13;18.20;99.90
33093;DHT22;19456;46.104;12.908;2023-05-07T06:30:39;18.30;99.90
33093;DHT22;19456;46.104;12.908;2023-05-07T06:33:05;18.40;99.90
33093;DHT22;19456;46.104;12.908;2023-05-07T06:35:31;18.40;99.90
33093;DHT22;19456;46.104;12.908;2023-05-07T06:37:56;18.30;99.90
33093;DHT22;19456;46.104;12.908;2023-05-07T06:40:22;18.40;99.90
33093;DHT22;19456;46.104;12.908;2023-05-07T06:42:47;18.50;99.90
33093;DHT22;19456;46.104;12.908;2023-05-07T06:45:13;18.50;99.90
33093;DHT22;19456;46.104;12.908;2023-05-07T06:47:38;18.50;99.90
33093;DHT22;19456;46.104;12.908;2023-05-07T06:50:04;18.60;99.90
33093;DHT22;19456;46.104;12.908;2023-05-07T06:52:30;18.80;99.90
33093;DHT22;19456;46.104;12.908;2023-05-07T06:54:55;18.90;99.90
33093;DHT22;19456;46.104;12.908;2023-05-07T06:57:21;19.10;99.90
33093;DHT22;19456;46.104;12.908;2023-05-07T06:59:46;19.20;99.90
33093;DHT22;19456;46.104;12.908;2023-05-07T07:02:12;19.30;99.90
33093;DHT22;19456;46.104;12.908;2023-05-07T07:04:40;19.50;99.90
33093;DHT22;19456;46.104;12.908;2023-05-07T07:07:07;19.60;99.90
33093;DHT22;19456;46.104;12.908;2023-05-07T07:09:32;19.80;99.90
33093;DHT22;19456;46.104;12.908;2023-05-07T07:11:58;19.80;99.90
33093;DHT22;19456;46.104;12.908;2023-05-07T07:14:23;20.00;99.90
33093;DHT22;19456;46.104;12.908;2023-05-07T07:16:49;19.90;99.90
33093;DHT22;19456;46.104;12.908;2023-05-07T07:19:15;20.00;99.90
33093;DHT22;19456;46.104;12.908;2023-05-07T07:21:41;20.20;99.90
33093;DHT22;19456;46.104;12.908;2023-05-07T07:24:06;20.30;99.90
33093;DHT22;19456;46.104;12.908;2023-05-07T07:26:32;20.40;99.90
33093;DHT22;19456;46.104;12.908;2023-05-07T07:28:57;20.50;99.90
33093;DHT22;19456;46.104;12.908;2023-05-07T07:31:23;20.60;99.90
33093;DHT22;19456;46.104;12.908;2023-05-07T07:33:49;20.70;99.90
33093;DHT22;19456;46.104;12.908;2023-05-07T07:36:15;20.80;99.90
33093;DHT22;19456;46.104;12.908;2023-05-07T07:38:41;20.90;99.90
33093;DHT22;19456;46.104;12.908;2023-05-07T07:41:09;20.90;99.90
33093;DHT22;19456;46.104;12.908;2023-05-07T07:43:35;21.00;99.90
33093;DHT22;19456;46.104;12.908;2023-05-07T07:46:01;21.10;99.90
33093;DHT22;19456;46.104;12.908;2023-05-07T07:48:26;21.20;99.90
33093;DHT22;19456;46.104;12.908;2023-05-07T07:50:52;21.30;99.90
33093;DHT22;19456;46.104;12.908;2023-05-07T07:53:17;21.40;99.90
33093;DHT22;19456;46.104;12.908;2023-05-07T07:55:43;21.40;99.90
33093;DHT22;19456;46.104;12.908;2023-05-07T07:58:09;21.50;99.90
33093;DHT22;19456;46.104;12.908;2023-05-07T08:00:34;21.50;99.90
33093;DHT22;19456;46.104;12.908;2023-05-07T08:03:00;21.50;99.90
33093;DHT22;19456;46.104;12.908;2023-05-07T08:05:26;21.50;99.90
33093;DHT22;19456;46.104;12.908;2023-05-07T08:07:51;21.70;99.90
33093;DHT22;19456;46.104;12.908;2023-05-07T08:10:18;21.70;99.90
33093;DHT22;19456;46.104;12.908;2023-05-07T08:12:50;21.80;99.90
33093;DHT22;19456;46.104;12.908;2023-05-07T08:15:15;21.90;99.90
33093;DHT22;19456;46.104;12.908;2023-05-07T08:17:41;22.00;99.90
33093;DHT22;19456;46.104;12.908;2023-05-07T08:20:07;22.10;99.90
33093;DHT22;19456;46.104;12.908;2023-05-07T08:22:36;22.20;99.90
33093;DHT22;19456;46.104;12.908;2023-05-07T08:25:01;22.20;99.90
33093;DHT22;19456;46.104;12.908;2023-05-07T08:27:27;22.30;99.90
33093;DHT22;19456;46.104;12.908;2023-05-07T08:29:53;22.40;99.90
33093;DHT22;19456;46.104;12.908;2023-05-07T08:32:18;22.50;99.90
33093;DHT22;19456;46.104;12.908;2023-05-07T08:34:44;22.60;99.90
33093;DHT22;19456;46.104;12.908;2023-05-07T08:37:10;22.70;99.90
33093;DHT22;19456;46.104;12.908;2023-05-07T08:39:35;22.80;99.90
33093;DHT22;19456;46.104;12.908;2023-05-07T08:42:01;22.90;99.90
33093;DHT22;19456;46.104;12.908;2023-05-07T08:44:33;23.10;99.90
33093;DHT22;19456;46.104;12.908;2023-05-07T08:46:59;23.20;99.90
33093;DHT22;19456;46.104;12.908;2023-05-07T08:49:26;23.20;99.90
33093;DHT22;19456;46.104;12.908;2023-05-07T08:51:52;23.30;99.90
33093;DHT22;19456;46.104;12.908;2023-05-07T08:54:18;23.40;99.90
33093;DHT22;19456;46.104;12.908;2023-05-07T08:56:45;23.30;99.90
33093;DHT22;19456;46.104;12.908;2023-05-07T08:59:10;23.30;99.90
33093;DHT22;19456;46.104;12.908;2023-05-07T09:01:36;23.30;99.90
33093;DHT22;19456;46.104;12.908;2023-05-07T09:04:01;23.40;99.90
33093;DHT22;19456;46.104;12.908;2023-05-07T09:06:27;23.60;99.90
33093;DHT22;19456;46.104;12.908;2023-05-07T09:08:53;23.80;99.90
33093;DHT22;19456;46.104;12.908;2023-05-07T09:11:20;23.90;99.90
33093;DHT22;19456;46.104;12.908;2023-05-07T09:13:46;24.10;99.90
33093;DHT22;19456;46.104;12.908;2023-05-07T09:16:12;24.10;99.90
33093;DHT22;19456;46.104;12.908;2023-05-07T09:18:43;24.10;99.90
33093;DHT22;19456;46.104;12.908;2023-05-07T09:21:10;24.10;99.90
33093;DHT22;19456;46.104;12.908;2023-05-07T09:23:36;24.30;99.90
33093;DHT22;19456;46.104;12.908;2023-05-07T09:26:02;24.30;99.90
33093;DHT22;19456;46.104;12.908;2023-05-07T09:28:28;24.30;99.90
33093;DHT22;19456;46.104;12.908;2023-05-07T09:30:53;24.10;99.90
33093;DHT22;19456;46.104;12.908;2023-05-07T09:33:20;24.10;99.90
33093;DHT22;19456;46.104;12.908;2023-05-07T09:35:46;24.10;99.90
33093;DHT22;19456;46.104;12.908;2023-05-07T09:38:12;24.20;99.90
33093;DHT22;19456;46.104;12.908;2023-05-07T09:40:37;24.20;99.90
33093;DHT22;19456;46.104;12.908;2023-05-07T09:43:10;24.40;99.90
33093;DHT22;19456;46.104;12.908;2023-05-07T09:45:36;24.70;99.90
33093;DHT22;19456;46.104;12.908;2023-05-07T09:48:02;24.90;99.90
33093;DHT22;19456;46.104;12.908;2023-05-07T09:50:32;24.60;99.90
33093;DHT22;19456;46.104;12.908;2023-05-07T09:52:59;24.80;99.90
33093;DHT22;19456;46.104;12.908;2023-05-07T09:55:25;24.90;99.90
33093;DHT22;19456;46.104;12.908;2023-05-07T09:57:52;25.00;99.90
33093;DHT22;19456;46.104;12.908;2023-05-07T10:00:18;25.00;99.90
33093;DHT22;19456;46.104;12.908;2023-05-07T10:02:45;24.90;99.90
33093;DHT22;19456;46.104;12.908;2023-05-07T10:05:16;24.90;99.90
33093;DHT22;19456;46.104;12.908;2023-05-07T10:07:42;25.10;99.90
33093;DHT22;19456;46.104;12.908;2023-05-07T10:10:07;25.10;99.90
33093;DHT22;19456;46.104;12.908;2023-05-07T10:12:33;25.20;99.90
33093;DHT22;19456;46.104;12.908;2023-05-07T10:15:07;25.20;99.90
33093;DHT22;19456;46.104;12.908;2023-05-07T10:17:39;25.30;99.90
33093;DHT22;19456;46.104;12.908;2023-05-07T10:20:05;25.30;99.90
33093;DHT22;19456;46.104;12.908;2023-05-07T10:22:32;25.40;99.90
33093;DHT22;19456;46.104;12.908;2023-05-07T10:24:58;25.50;99.90
33093;DHT22;19456;46.104;12.908;2023-05-07T10:27:24;25.40;99.90
33093;DHT22;19456;46.104;12.908;2023-05-07T10:32:49;25.80;99.90
33093;DHT22;19456;46.104;12.908;2023-05-07T10:35:21;26.10;99.90
33093;DHT22;19456;46.104;12.908;2023-05-07T10:37:48;25.80;99.90
33093;DHT22;19456;46.104;12.908;2023-05-07T10:40:14;25.60;99.90
33093;DHT22;19456;46.104;12.908;2023-05-07T10:42:52;25.50;99.90
33093;DHT22;19456;46.104;12.908;2023-05-07T10:45:18;25.90;99.90
33093;DHT22;19456;46.104;12.908;2023-05-07T10:50:28;26.60;99.90
33093;DHT22;19456;46.104;12.908;2023-05-07T10:55:38;26.20;99.90
33093;DHT22;19456;46.104;12.908;2023-05-07T11:00:47;26.40;99.90
33093;DHT22;19456;46.104;12.908;2023-05-07T11:03:13;26.70;99.90
33093;DHT22;19456;46.104;12.908;2023-05-07T11:05:40;26.70;99.90
33093;DHT22;19456;46.104;12.908;2023-05-07T11:08:06;27.20;99.90
33093;DHT22;19456;46.104;12.908;2023-05-07T11:10:52;27.50;99.90
33093;DHT22;19456;46.104;12.908;2023-05-07T11:13:18;27.50;99.90
33093;DHT22;19456;46.104;12.908;2023-05-07T11:15:45;28.10;99.90
33093;DHT22;19456;46.104;12.908;2023-05-07T11:18:12;28.00;99.90
33093;DHT22;19456;46.104;12.908;2023-05-07T11:20:51;28.00;99.90
33093;DHT22;19456;46.104;12.908;2023-05-07T11:26:07;27.80;99.90
33093;DHT22;19456;46.104;12.908;2023-05-07T11:28:36;27.90;99.90
33093;DHT22;19456;46.104;12.908;2023-05-07T11:31:02;27.70;99.90
33093;DHT22;19456;46.104;12.908;2023-05-07T11:33:28;27.80;99.90
33093;DHT22;19456;46.104;12.908;2023-05-07T11:35:54;27.60;99.90
33093;DHT22;19456;46.104;12.908;2023-05-07T11:38:20;27.80;99.90
33093;DHT22;19456;46.104;12.908;2023-05-07T11:40:52;27.70;99.90
33093;DHT22;19456;46.104;12.908;2023-05-07T11:43:18;27.70;99.90
33093;DHT22;19456;46.104;12.908;2023-05-07T11:45:44;27.50;99.90
33093;DHT22;19456;46.104;12.908;2023-05-07T11:48:10;27.80;99.90
33093;DHT22;19456;46.104;12.908;2023-05-07T11:50:35;27.90;99.90
33093;DHT22;19456;46.104;12.908;2023-05-07T11:53:07;28.10;99.90
33093;DHT22;19456;46.104;12.908;2023-05-07T11:55:32;28.20;99.90
33093;DHT22;19456;46.104;12.908;2023-05-07T11:57:58;28.30;99.90
33093;DHT22;19456;46.104;12.908;2023-05-07T12:00:23;28.20;98.50
33093;DHT22;19456;46.104;12.908;2023-05-07T12:02:49;28.20;96.30
33093;DHT22;19456;46.104;12.908;2023-05-07T12:05:15;27.70;99.90
33093;DHT22;19456;46.104;12.908;2023-05-07T12:07:41;27.80;99.90
33093;DHT22;19456;46.104;12.908;2023-05-07T12:10:06;28.00;99.90
33093;DHT22;19456;46.104;12.908;2023-05-07T12:12:37;28.20;99.90
33093;DHT22;19456;46.104;12.908;2023-05-07T12:15:03;28.40;99.90
33093;DHT22;19456;46.104;12.908;2023-05-07T12:17:29;28.30;99.90
33093;DHT22;19456;46.104;12.908;2023-05-07T12:19:55;28.40;99.90
33093;DHT22;19456;46.104;12.908;2023-05-07T12:22:20;29.00;99.90
33093;DHT22;19456;46.104;12.908;2023-05-07T12:24:47;29.50;99.90
33093;DHT22;19456;46.104;12.908;2023-05-07T12:27:13;30.10;99.90
33093;DHT22;19456;46.104;12.908;2023-05-07T12:29:39;29.70;99.20
33093;DHT22;19456;46.104;12.908;2023-05-07T12:32:06;29.60;99.90
33093;DHT22;19456;46.104;12.908;2023-05-07T12:34:32;29.50;99.80
33093;DHT22;19456;46.104;12.908;2023-05-07T12:36:57;29.80;99.90
33093;DHT22;19456;46.104;12.908;2023-05-07T12:39:26;29.90;98.60
33093;DHT22;19456;46.104;12.908;2023-05-07T12:41:55;30.00;97.70
33093;DHT22;19456;46.104;12.908;2023-05-07T12:44:22;29.50;97.30
33093;DHT22;19456;46.104;12.908;2023-05-07T12:46:47;29.50;97.30
33093;DHT22;19456;46.104;12.908;2023-05-07T12:49:13;29.50;98.40
33093;DHT22;19456;46.104;12.908;2023-05-07T12:51:38;29.30;98.30
33093;DHT22;19456;46.104;12.908;2023-05-07T12:54:04;29.30;97.90
33093;DHT22;19456;46.104;12.908;2023-05-07T12:56:35;29.20;97.80
33093;DHT22;19456;46.104;12.908;2023-05-07T12:59:01;29.30;97.50
33093;DHT22;19456;46.104;12.908;2023-05-07T13:01:29;30.10;97.40
33093;DHT22;19456;46.104;12.908;2023-05-07T13:04:02;30.50;96.10
33093;DHT22;19456;46.104;12.908;2023-05-07T13:06:29;30.30;96.10
33093;DHT22;19456;46.104;12.908;2023-05-07T13:08:55;30.30;96.40
33093;DHT22;19456;46.104;12.908;2023-05-07T13:11:20;30.50;94.60
33093;DHT22;19456;46.104;12.908;2023-05-07T13:13:46;30.80;94.90
33093;DHT22;19456;46.104;12.908;2023-05-07T13:16:11;31.00;95.30
33093;DHT22;19456;46.104;12.908;2023-05-07T13:18:38;30.60;94.50
33093;DHT22;19456;46.104;12.908;2023-05-07T13:21:03;30.60;94.50
33093;DHT22;19456;46.104;12.908;2023-05-07T13:23:29;31.00;93.50
33093;DHT22;19456;46.104;12.908;2023-05-07T13:25:55;31.00;92.90
33093;DHT22;19456;46.104;12.908;2023-05-07T13:28:21;31.00;91.50
33093;DHT22;19456;46.104;12.908;2023-05-07T13:30:47;30.90;92.30
33093;DHT22;19456;46.104;12.908;2023-05-07T13:33:13;30.70;92.20
33093;DHT22;19456;46.104;12.908;2023-05-07T13:35:39;30.60;90.90
33093;DHT22;19456;46.104;12.908;2023-05-07T13:38:07;30.20;90.70
33093;DHT22;19456;46.104;12.908;2023-05-07T13:40:33;29.70;91.20
33093;DHT22;19456;46.104;12.908;2023-05-07T13:42:58;29.60;91.90
33093;DHT22;19456;46.104;12.908;2023-05-07T13:45:27;29.40;91.90
33093;DHT22;19456;46.104;12.908;2023-05-07T13:47:55;30.30;92.00
33093;DHT22;19456;46.104;12.908;2023-05-07T13:50:20;30.50;91.20
33093;DHT22;19456;46.104;12.908;2023-05-07T13:52:46;30.30;92.40
33093;DHT22;19456;46.104;12.908;2023-05-07T13:55:16;29.70;93.50
33093;DHT22;19456;46.104;12.908;2023-05-07T13:57:42;29.20;94.10
33093;DHT22;19456;46.104;12.908;2023-05-07T14:00:08;28.60;94.10
33093;DHT22;19456;46.104;12.908;2023-05-07T14:02:34;28.30;93.90
33093;DHT22;19456;46.104;12.908;2023-05-07T14:04:59;28.20;94.20
33093;DHT22;19456;46.104;12.908;2023-05-07T14:07:25;28.00;94.20
33093;DHT22;19456;46.104;12.908;2023-05-07T14:09:51;27.70;94.50
33093;DHT22;19456;46.104;12.908;2023-05-07T14:12:16;27.50;95.40
33093;DHT22;19456;46.104;12.908;2023-05-07T14:14:42;27.10;96.10
33093;DHT22;19456;46.104;12.908;2023-05-07T14:17:07;26.90;97.10
33093;DHT22;19456;46.104;12.908;2023-05-07T14:19:33;26.60;98.00
33093;DHT22;19456;46.104;12.908;2023-05-07T14:21:59;26.70;98.40
33093;DHT22;19456;46.104;12.908;2023-05-07T14:24:25;26.30;98.30
33093;DHT22;19456;46.104;12.908;2023-05-07T14:26:50;26.30;99.30
33093;DHT22;19456;46.104;12.908;2023-05-07T14:29:16;26.00;99.90
33093;DHT22;19456;46.104;12.908;2023-05-07T14:31:44;26.00;99.90
33093;DHT22;19456;46.104;12.908;2023-05-07T14:34:10;26.00;99.90
33093;DHT22;19456;46.104;12.908;2023-05-07T14:36:35;26.10;99.90
33093;DHT22;19456;46.104;12.908;2023-05-07T14:39:01;26.00;99.90
33093;DHT22;19456;46.104;12.908;2023-05-07T14:41:26;26.00;99.90
33093;DHT22;19456;46.104;12.908;2023-05-07T14:43:52;26.00;99.90
33093;DHT22;19456;46.104;12.908;2023-05-07T14:46:18;26.00;99.90
33093;DHT22;19456;46.104;12.908;2023-05-07T14:48:44;25.50;99.90
33093;DHT22;19456;46.104;12.908;2023-05-07T14:51:10;24.80;99.90
33093;DHT22;19456;46.104;12.908;2023-05-07T14:53:36;24.10;99.90
33093;DHT22;19456;46.104;12.908;2023-05-07T14:56:02;23.60;99.90
33093;DHT22;19456;46.104;12.908;2023-05-07T14:58:28;23.40;99.90
33093;DHT22;19456;46.104;12.908;2023-05-07T15:00:53;23.10;99.90
33093;DHT22;19456;46.104;12.908;2023-05-07T15:03:19;23.10;99.90
33093;DHT22;19456;46.104;12.908;2023-05-07T15:05:45;23.20;99.90
33093;DHT22;19456;46.104;12.908;2023-05-07T15:08:10;23.00;99.90
33093;DHT22;19456;46.104;12.908;2023-05-07T15:10:36;23.00;99.90
33093;DHT22;19456;46.104;12.908;2023-05-07T15:13:11;23.10;99.90
33093;DHT22;19456;46.104;12.908;2023-05-07T15:15:37;23.10;99.90
33093;DHT22;19456;46.104;12.908;2023-05-07T15:18:03;22.90;99.90
33093;DHT22;19456;46.104;12.908;2023-05-07T15:20:29;22.50;99.90
33093;DHT22;19456;46.104;12.908;2023-05-07T15:22:55;22.50;99.90